Time,TemperatureF,DewpointF,PressureIn,WindDirection,WindDirectionDegrees,WindSpeedMPH,WindSpeedGustMPH,Humidity,HourlyPrecipIn,Conditions,Clouds,dailyrainin,SoftwareType,DateUTC
2013-04-24 00:02:00,46.0,44.0,30.22,NE,47,3.0,7.0,91,0.00,,,0.00,,2013-04-24 07:02:00,
2013-04-24 00:11:00,46.0,44.0,30.22,NE,47,3.0,7.0,91,0.00,,,0.00,,2013-04-24 07:11:00,
2013-04-24 00:21:00,46.0,44.0,30.22,NE,34,6.0,11.0,91,0.00,,,0.00,,2013-04-24 07:21:00,
2013-04-24 00:32:00,46.0,44.0,30.22,East,88,5.0,10.0,91,0.00,,,0.00,,2013-04-24 07:32:00,
2013-04-24 00:41:00,46.0,44.0,30.22,East,88,5.0,10.0,91,0.00,,,0.00,,2013-04-24 07:41:00,
2013-04-24 00:52:00,46.0,44.0,30.23,NNE,22,4.0,10.0,91,0.00,,,0.00,,2013-04-24 07:52:00,
2013-04-24 01:01:00,46.0,44.0,30.22,East,92,6.0,11.0,91,0.00,,,0.00,,2013-04-24 08:01:00,
2013-04-24 01:11:00,46.0,44.0,30.22,East,92,6.0,11.0,91,0.00,,,0.00,,2013-04-24 08:11:00,
2013-04-24 01:21:00,46.0,44.0,30.22,ESE,113,7.0,11.0,91,0.00,,,0.00,,2013-04-24 08:21:00,
2013-04-24 01:33:00,46.0,43.0,30.22,NE,44,8.0,12.0,90,0.00,,,0.00,,2013-04-24 08:33:00,
2013-04-24 01:42:00,46.0,43.0,30.22,NE,44,8.0,12.0,90,0.00,,,0.00,,2013-04-24 08:42:00,
2013-04-24 01:51:00,46.0,44.0,30.22,NE,40,7.0,14.0,91,0.00,,,0.00,,2013-04-24 08:51:00,
2013-04-24 02:01:00,46.0,43.0,30.21,East,92,7.0,13.0,90,0.00,,,0.00,,2013-04-24 09:01:00,
2013-04-24 02:11:00,46.0,43.0,30.21,East,92,7.0,13.0,90,0.00,,,0.00,,2013-04-24 09:11:00,
2013-04-24 02:21:00,46.0,43.0,30.21,NE,38,9.0,16.0,90,0.00,,,0.00,,2013-04-24 09:21:00,
2013-04-24 02:32:00,46.0,43.0,30.20,North,355,7.0,15.0,89,0.00,,,0.00,,2013-04-24 09:32:00,
2013-04-24 02:42:00,46.0,43.0,30.20,North,355,7.0,15.0,89,0.00,,,0.00,,2013-04-24 09:42:00,
2013-04-24 02:53:00,46.0,43.0,30.19,East,98,7.0,15.0,89,0.00,,,0.00,,2013-04-24 09:53:00,
2013-04-24 03:02:00,45.0,42.0,30.19,East,98,5.0,15.0,89,0.00,,,0.00,,2013-04-24 10:02:00,
2013-04-24 03:12:00,45.0,42.0,30.19,East,98,5.0,15.0,89,0.00,,,0.00,,2013-04-24 10:12:00,
2013-04-24 03:22:00,45.0,42.0,30.18,NE,38,7.0,15.0,89,0.00,,,0.00,,2013-04-24 10:22:00,
2013-04-24 03:32:00,45.0,42.0,30.18,NNE,17,6.0,15.0,89,0.00,,,0.00,,2013-04-24 10:32:00,
2013-04-24 03:42:00,45.0,42.0,30.18,NNE,17,6.0,15.0,89,0.00,,,0.00,,2013-04-24 10:42:00,
2013-04-24 03:52:00,45.0,42.0,30.17,ENE,63,6.0,14.0,88,0.00,,,0.00,,2013-04-24 10:52:00,
2013-04-24 04:02:00,45.0,42.0,30.17,SSE,165,4.0,17.0,88,0.00,,,0.00,,2013-04-24 11:02:00,
2013-04-24 04:11:00,45.0,42.0,30.17,SSE,165,4.0,17.0,88,0.00,,,0.00,,2013-04-24 11:11:00,
2013-04-24 04:21:00,45.0,41.0,30.16,ENE,60,5.0,16.0,87,0.00,,,0.00,,2013-04-24 11:21:00,
2013-04-24 04:32:00,45.0,41.0,30.17,ENE,69,4.0,14.0,86,0.00,,,0.00,,2013-04-24 11:32:00,
2013-04-24 04:42:00,45.0,41.0,30.17,ENE,69,4.0,14.0,86,0.00,,,0.00,,2013-04-24 11:42:00,
2013-04-24 04:52:00,44.0,40.0,30.16,ENE,74,5.0,13.0,86,0.00,,,0.00,,2013-04-24 11:52:00,
2013-04-24 05:01:00,44.0,40.0,30.16,NE,51,6.0,12.0,87,0.00,,,0.00,,2013-04-24 12:01:00,
2013-04-24 05:11:00,44.0,40.0,30.16,NE,51,6.0,12.0,87,0.00,,,0.00,,2013-04-24 12:11:00,
2013-04-24 05:22:00,44.0,40.0,30.16,NE,39,6.0,17.0,86,0.00,,,0.00,,2013-04-24 12:22:00,
2013-04-24 05:32:00,45.0,40.0,30.17,NNW,347,8.0,17.0,84,0.00,,,0.00,,2013-04-24 12:32:00,
2013-04-24 05:42:00,45.0,40.0,30.17,NNW,347,8.0,17.0,84,0.00,,,0.00,,2013-04-24 12:42:00,
2013-04-24 05:51:00,47.0,41.0,30.17,NNE,23,11.0,21.0,78,0.00,,,0.00,,2013-04-24 12:51:00,
2013-04-24 06:01:00,48.0,41.0,30.17,ESE,114,8.0,19.0,77,0.00,,,0.00,,2013-04-24 13:01:00,
2013-04-24 06:12:00,48.0,41.0,30.17,ESE,114,8.0,19.0,77,0.00,,,0.00,,2013-04-24 13:12:00,
2013-04-24 06:22:00,47.0,40.0,30.16,NNE,12,4.0,18.0,76,0.00,,,0.00,,2013-04-24 13:22:00,
2013-04-24 06:31:00,47.0,39.0,30.16,NE,41,5.0,12.0,74,0.00,,,0.00,,2013-04-24 13:31:00,
2013-04-24 06:41:00,47.0,39.0,30.16,NE,41,5.0,12.0,74,0.00,,,0.00,,2013-04-24 13:41:00,
2013-04-24 06:52:00,47.0,38.0,30.16,NNE,31,5.0,12.0,72,0.00,,,0.00,,2013-04-24 13:52:00,
2013-04-24 07:01:00,48.0,38.0,30.16,ENE,59,3.0,10.0,69,0.00,,,0.00,,2013-04-24 14:01:00,
2013-04-24 07:11:00,48.0,38.0,30.16,ENE,59,3.0,10.0,69,0.00,,,0.00,,2013-04-24 14:11:00,
2013-04-24 07:21:00,48.0,38.0,30.16,NNE,13,6.0,11.0,67,0.00,,,0.00,,2013-04-24 14:21:00,
2013-04-24 07:32:00,48.0,38.0,30.16,East,94,5.0,11.0,67,0.00,,,0.00,,2013-04-24 14:32:00,
2013-04-24 07:41:00,48.0,38.0,30.16,East,94,5.0,11.0,67,0.00,,,0.00,,2013-04-24 14:41:00,
2013-04-24 07:51:00,47.0,37.0,30.16,NE,38,4.0,13.0,68,0.00,,,0.00,,2013-04-24 14:51:00,
2013-04-24 08:01:00,48.0,38.0,30.16,East,82,5.0,13.0,67,0.00,,,0.00,,2013-04-24 15:01:00,
2013-04-24 08:11:00,48.0,38.0,30.16,East,82,5.0,13.0,67,0.00,,,0.00,,2013-04-24 15:11:00,
2013-04-24 08:21:00,50.0,38.0,30.17,NNE,30,5.0,12.0,63,0.00,,,0.00,,2013-04-24 15:21:00,
2013-04-24 08:33:00,53.0,37.0,30.16,NNW,344,5.0,16.0,54,0.00,,,0.00,,2013-04-24 15:33:00,
2013-04-24 08:42:00,53.0,37.0,30.16,NNW,344,5.0,16.0,54,0.00,,,0.00,,2013-04-24 15:42:00,
2013-04-24 08:52:00,55.0,36.0,30.17,NW,325,2.0,10.0,49,0.00,,,0.00,,2013-04-24 15:52:00,
2013-04-24 09:03:00,57.0,35.0,30.17,NNW,339,3.0,12.0,43,0.00,,,0.00,,2013-04-24 16:03:00,
2013-04-24 09:12:00,57.0,35.0,30.17,NNW,339,3.0,12.0,43,0.00,,,0.00,,2013-04-24 16:12:00,
2013-04-24 09:23:00,58.0,34.0,30.17,WNW,300,2.0,8.0,41,0.00,,,0.00,,2013-04-24 16:23:00,
2013-04-24 09:32:00,59.0,35.0,30.17,NE,40,1.0,7.0,41,0.00,,,0.00,,2013-04-24 16:32:00,
2013-04-24 09:42:00,59.0,35.0,30.17,NE,40,1.0,7.0,41,0.00,,,0.00,,2013-04-24 16:42:00,
2013-04-24 09:52:00,60.0,34.0,30.16,SSE,157,3.0,9.0,38,0.00,,,0.00,,2013-04-24 16:52:00,
2013-04-24 10:02:00,62.0,33.0,30.16,South,190,5.0,10.0,34,0.00,,,0.00,,2013-04-24 17:02:00,
2013-04-24 10:12:00,62.0,33.0,30.16,South,190,5.0,10.0,34,0.00,,,0.00,,2013-04-24 17:12:00,
2013-04-24 10:22:00,64.0,36.0,30.16,ESE,110,3.0,9.0,35,0.00,,,0.00,,2013-04-24 17:22:00,
2013-04-24 10:32:00,63.0,36.0,30.16,SSW,192,3.0,5.0,37,0.00,,,0.00,,2013-04-24 17:32:00,
2013-04-24 10:42:00,63.0,36.0,30.16,SSW,192,3.0,5.0,37,0.00,,,0.00,,2013-04-24 17:42:00,
2013-04-24 10:51:00,65.0,34.0,30.16,SSE,153,3.0,10.0,32,0.00,,,0.00,,2013-04-24 17:51:00,
2013-04-24 11:02:00,67.0,35.0,30.16,WNW,282,2.0,6.0,30,0.00,,,0.00,,2013-04-24 18:02:00,
2013-04-24 11:12:00,67.0,35.0,30.16,WNW,282,2.0,6.0,30,0.00,,,0.00,,2013-04-24 18:12:00,
2013-04-24 11:21:00,67.0,35.0,30.16,West,267,3.0,10.0,30,0.00,,,0.00,,2013-04-24 18:21:00,
2013-04-24 11:32:00,65.0,39.0,30.15,South,185,3.0,10.0,38,0.00,,,0.00,,2013-04-24 18:32:00,
2013-04-24 11:42:00,65.0,39.0,30.15,South,185,3.0,10.0,38,0.00,,,0.00,,2013-04-24 18:42:00,
2013-04-24 11:52:00,69.0,32.0,30.15,SSE,159,4.0,12.0,25,0.00,,,0.00,,2013-04-24 18:52:00,
2013-04-24 12:01:00,67.0,42.0,30.15,WNW,300,2.0,11.0,40,0.00,,,0.00,,2013-04-24 19:01:00,
2013-04-24 12:11:00,67.0,42.0,30.15,WNW,300,2.0,11.0,40,0.00,,,0.00,,2013-04-24 19:11:00,
2013-04-24 12:21:00,67.0,43.0,30.14,South,186,2.0,7.0,41,0.00,,,0.00,,2013-04-24 19:21:00,
2013-04-24 12:31:00,68.0,43.0,30.14,NW,308,3.0,7.0,40,0.00,,,0.00,,2013-04-24 19:31:00,
2013-04-24 12:42:00,68.0,43.0,30.14,NW,308,3.0,7.0,40,0.00,,,0.00,,2013-04-24 19:42:00,
2013-04-24 12:52:00,66.0,44.0,30.13,NW,310,5.0,10.0,45,0.00,,,0.00,,2013-04-24 19:52:00,
2013-04-24 13:01:00,65.0,43.0,30.12,North,350,6.0,13.0,44,0.00,,,0.00,,2013-04-24 20:01:00,
2013-04-24 13:11:00,65.0,43.0,30.12,North,350,6.0,13.0,44,0.00,,,0.00,,2013-04-24 20:11:00,
2013-04-24 13:21:00,65.0,40.0,30.12,NW,318,5.0,13.0,40,0.00,,,0.00,,2013-04-24 20:21:00,
2013-04-24 13:32:00,64.0,38.0,30.12,West,280,4.0,13.0,38,0.00,,,0.00,,2013-04-24 20:32:00,
2013-04-24 13:42:00,64.0,38.0,30.12,West,280,4.0,13.0,38,0.00,,,0.00,,2013-04-24 20:42:00,
2013-04-24 13:51:00,64.0,38.0,30.12,SSW,209,3.0,13.0,38,0.00,,,0.00,,2013-04-24 20:51:00,
2013-04-24 14:02:00,65.0,37.0,30.11,West,264,4.0,12.0,36,0.00,,,0.00,,2013-04-24 21:02:00,
2013-04-24 14:11:00,65.0,37.0,30.11,West,264,4.0,12.0,36,0.00,,,0.00,,2013-04-24 21:11:00,
2013-04-24 14:21:00,66.0,39.0,30.10,SW,226,4.0,11.0,37,0.00,,,0.00,,2013-04-24 21:21:00,
2013-04-24 14:32:00,67.0,38.0,30.11,NW,313,4.0,12.0,35,0.00,,,0.00,,2013-04-24 21:32:00,
2013-04-24 14:42:00,67.0,38.0,30.11,NW,313,4.0,12.0,35,0.00,,,0.00,,2013-04-24 21:42:00,
2013-04-24 14:52:00,67.0,38.0,30.10,WSW,247,5.0,13.0,34,0.00,,,0.00,,2013-04-24 21:52:00,
2013-04-24 15:03:00,67.0,39.0,30.09,WNW,286,4.0,9.0,36,0.00,,,0.00,,2013-04-24 22:03:00,
2013-04-24 15:12:00,67.0,39.0,30.09,WNW,286,4.0,9.0,36,0.00,,,0.00,,2013-04-24 22:12:00,
2013-04-24 15:22:00,67.0,39.0,30.09,WSW,258,2.0,12.0,36,0.00,,,0.00,,2013-04-24 22:22:00,
2013-04-24 15:33:00,67.0,42.0,30.09,West,261,3.0,17.0,40,0.00,,,0.00,,2013-04-24 22:33:00,
2013-04-24 15:42:00,67.0,42.0,30.09,West,261,3.0,17.0,40,0.00,,,0.00,,2013-04-24 22:42:00,
2013-04-24 15:52:00,66.0,39.0,30.09,SSW,213,3.0,13.0,37,0.00,,,0.00,,2013-04-24 22:52:00,
2013-04-24 16:02:00,66.0,41.0,30.08,WSW,238,4.0,13.0,40,0.00,,,0.00,,2013-04-24 23:02:00,
2013-04-24 16:12:00,66.0,41.0,30.08,WSW,238,4.0,13.0,40,0.00,,,0.00,,2013-04-24 23:12:00,
2013-04-24 16:21:00,67.0,43.0,30.07,WNW,299,4.0,10.0,42,0.00,,,0.00,,2013-04-24 23:21:00,
2013-04-24 16:32:00,66.0,43.0,30.07,SSW,196,5.0,8.0,44,0.00,,,0.00,,2013-04-24 23:32:00,
2013-04-24 16:42:00,66.0,43.0,30.07,SSW,196,5.0,8.0,44,0.00,,,0.00,,2013-04-24 23:42:00,
2013-04-24 16:51:00,66.0,42.0,30.06,WSW,244,3.0,10.0,42,0.00,,,0.00,,2013-04-24 23:51:00,
2013-04-24 17:01:00,65.0,43.0,30.05,SSW,211,3.0,9.0,45,0.00,,,0.00,,2013-04-25 00:01:00,
2013-04-24 17:12:00,65.0,43.0,30.05,SSW,211,3.0,9.0,45,0.00,,,0.00,,2013-04-25 00:12:00,
2013-04-24 17:22:00,64.0,45.0,30.05,SW,221,3.0,11.0,50,0.00,,,0.00,,2013-04-25 00:22:00,
2013-04-24 17:32:00,64.0,43.0,30.05,SW,233,4.0,9.0,47,0.00,,,0.00,,2013-04-25 00:32:00,
2013-04-24 17:41:00,64.0,43.0,30.05,SW,233,4.0,9.0,47,0.00,,,0.00,,2013-04-25 00:41:00,
2013-04-24 17:51:00,65.0,43.0,30.04,SE,146,3.0,11.0,45,0.00,,,0.00,,2013-04-25 00:51:00,
2013-04-24 18:01:00,64.0,45.0,30.04,NW,304,4.0,9.0,50,0.00,,,0.00,,2013-04-25 01:01:00,
2013-04-24 18:11:00,64.0,45.0,30.04,NW,304,4.0,9.0,50,0.00,,,0.00,,2013-04-25 01:11:00,
2013-04-24 18:22:00,62.0,45.0,30.04,WSW,240,4.0,9.0,54,0.00,,,0.00,,2013-04-25 01:22:00,
2013-04-24 18:32:00,61.0,46.0,30.04,WNW,303,5.0,7.0,57,0.00,,,0.00,,2013-04-25 01:32:00,
2013-04-24 18:42:00,61.0,46.0,30.04,WNW,303,5.0,7.0,57,0.00,,,0.00,,2013-04-25 01:42:00,
2013-04-24 18:52:00,60.0,46.0,30.04,West,264,3.0,7.0,59,0.00,,,0.00,,2013-04-25 01:52:00,
2013-04-24 19:01:00,60.0,45.0,30.03,SW,225,2.0,7.0,58,0.00,,,0.00,,2013-04-25 02:01:00,
2013-04-24 19:11:00,60.0,45.0,30.03,SW,225,2.0,7.0,58,0.00,,,0.00,,2013-04-25 02:11:00,
2013-04-24 19:22:00,60.0,47.0,30.03,NW,313,1.0,6.0,61,0.00,,,0.00,,2013-04-25 02:22:00,
2013-04-24 19:32:00,59.0,46.0,30.03,North,349,4.0,9.0,62,0.00,,,0.00,,2013-04-25 02:32:00,
2013-04-24 19:42:00,59.0,46.0,30.03,North,349,4.0,9.0,62,0.00,,,0.00,,2013-04-25 02:42:00,
2013-04-24 19:51:00,59.0,46.0,30.03,North,349,4.0,9.0,62,0.00,,,0.00,,2013-04-25 02:51:00,
2013-04-24 20:02:00,58.0,45.0,30.03,NW,315,6.0,12.0,63,0.00,,,0.00,,2013-04-25 03:02:00,
2013-04-24 20:11:00,58.0,45.0,30.03,NW,315,6.0,12.0,63,0.00,,,0.00,,2013-04-25 03:11:00,
2013-04-24 20:21:00,57.0,44.0,30.04,SW,219,2.0,7.0,62,0.00,,,0.00,,2013-04-25 03:21:00,
2013-04-24 20:32:00,57.0,44.0,30.04,SW,219,2.0,7.0,62,0.00,,,0.00,,2013-04-25 03:32:00,
2013-04-24 20:42:00,57.0,44.0,30.04,SW,219,2.0,7.0,62,0.00,,,0.00,,2013-04-25 03:42:00,
2013-04-24 20:52:00,55.0,45.0,30.03,NNE,30,0.0,3.0,68,0.00,,,0.00,,2013-04-25 03:52:00,
2013-04-24 21:03:00,53.0,43.0,30.04,NW,308,1.0,6.0,69,0.00,,,0.00,,2013-04-25 04:03:00,
2013-04-24 21:12:00,53.0,43.0,30.04,NW,308,1.0,6.0,69,0.00,,,0.00,,2013-04-25 04:12:00,
2013-04-24 21:22:00,53.0,44.0,30.04,ESE,109,0.0,2.0,71,0.00,,,0.00,,2013-04-25 04:22:00,
2013-04-24 21:32:00,52.0,44.0,30.04,East,90,1.0,3.0,73,0.00,,,0.00,,2013-04-25 04:32:00,
2013-04-24 21:42:00,52.0,44.0,30.04,East,90,1.0,3.0,73,0.00,,,0.00,,2013-04-25 04:42:00,
2013-04-24 21:52:00,51.0,43.0,30.05,ENE,75,0.0,2.0,75,0.00,,,0.00,,2013-04-25 04:52:00,
2013-04-24 22:02:00,51.0,44.0,30.05,NNE,15,0.0,3.0,76,0.00,,,0.00,,2013-04-25 05:02:00,
2013-04-24 22:12:00,51.0,44.0,30.05,NNE,15,0.0,3.0,76,0.00,,,0.00,,2013-04-25 05:12:00,
2013-04-24 22:21:00,51.0,44.0,30.04,NNE,15,0.0,1.0,77,0.00,,,0.00,,2013-04-25 05:21:00,
2013-04-24 22:31:00,53.0,46.0,30.04,ENE,67,4.0,7.0,78,0.00,,,0.00,,2013-04-25 05:31:00,
2013-04-24 22:42:00,53.0,46.0,30.04,ENE,67,4.0,7.0,78,0.00,,,0.00,,2013-04-25 05:42:00,
2013-04-24 22:51:00,56.0,47.0,30.04,ENE,71,3.0,9.0,71,0.00,,,0.00,,2013-04-25 05:51:00,
2013-04-24 23:01:00,53.0,44.0,30.04,SW,221,2.0,6.0,72,0.00,,,0.00,,2013-04-25 06:01:00,
2013-04-24 23:11:00,53.0,44.0,30.04,SW,221,2.0,6.0,72,0.00,,,0.00,,2013-04-25 06:11:00,
2013-04-24 23:22:00,51.0,44.0,30.04,SSE,153,1.0,3.0,77,0.00,,,0.00,,2013-04-25 06:22:00,
2013-04-24 23:31:00,50.0,44.0,30.04,ESE,112,0.0,2.0,79,0.00,,,0.00,,2013-04-25 06:31:00,
2013-04-24 23:41:00,50.0,44.0,30.04,ESE,112,0.0,2.0,79,0.00,,,0.00,,2013-04-25 06:41:00,
2013-04-24 23:52:00,51.0,45.0,30.04,ENE,72,5.0,8.0,80,0.00,,,0.00,,2013-04-25 06:52:00,